createdAt,value
2022-09-24T07:10:06.856Z,78.54
2022-09-24T07:12:37.258Z,78.41
2022-09-24T07:15:08.035Z,78.79
2022-09-24T07:17:37.264Z,78.27
2022-09-24T07:20:07.494Z,77.72
2022-09-24T07:22:41.014Z,78.66
2022-09-24T07:25:13.257Z,74.79
2022-09-24T07:27:42.473Z,76.79
2022-09-24T07:30:12.969Z,78.65
2022-09-24T07:32:42.068Z,73.95
2022-09-24T07:35:11.390Z,74.61
2022-09-24T07:37:40.501Z,74.40
2022-09-24T07:40:12.079Z,72.75
2022-09-24T07:42:48.532Z,71.02
2022-09-24T07:45:18.418Z,70.72
2022-09-24T07:47:47.584Z,71.94
2022-09-24T07:50:17.952Z,72.02
2022-09-24T07:52:52.213Z,72.14
2022-09-24T07:55:23.070Z,72.26
2022-09-24T07:57:55.746Z,72.20
2022-09-24T08:00:25.737Z,72.74
2022-09-24T08:02:56.642Z,72.88
2022-09-24T08:05:25.913Z,73.71
2022-09-24T08:07:57.195Z,73.35
2022-09-24T08:10:29.880Z,73.54
2022-09-24T08:13:03.475Z,73.49
2022-09-24T08:15:32.610Z,73.50
2022-09-24T08:18:03.808Z,73.15
2022-09-24T08:20:34.376Z,72.93
2022-09-24T08:23:04.377Z,72.59
2022-09-24T08:25:35.221Z,72.72
2022-09-24T08:28:04.999Z,72.28
2022-09-24T08:30:35.118Z,72.67
2022-09-24T08:33:05.512Z,72.25
2022-09-24T08:35:35.036Z,72.04
2022-09-24T08:38:04.636Z,71.92
2022-09-24T08:40:40.441Z,71.99
2022-09-24T08:43:25.863Z,71.98
2022-09-24T08:46:18.849Z,71.80
2022-09-24T08:48:53.363Z,72.05
2022-09-24T08:51:24.934Z,72.09
2022-09-24T08:53:59.725Z,72.26
2022-09-24T08:56:39.706Z,71.94
2022-09-24T08:59:24.126Z,71.38
2022-09-24T09:02:14.306Z,71.46
2022-09-24T09:04:58.171Z,71.55
2022-09-24T09:07:32.420Z,71.23
2022-09-24T09:10:05.600Z,70.86
2022-09-24T09:12:40.926Z,70.49
2022-09-24T09:15:17.516Z,70.54
2022-09-24T09:17:52.265Z,70.48
2022-09-24T09:20:26.699Z,70.84
2022-09-24T09:22:56.226Z,69.67
2022-09-24T09:25:28.692Z,69.21
2022-09-24T09:28:06.059Z,69.30
2022-09-24T09:30:43.733Z,67.13
2022-09-24T09:33:28.789Z,67.06
2022-09-24T09:36:21.475Z,65.94
2022-09-24T09:39:01.397Z,65.39
2022-09-24T09:41:40.582Z,66.34
2022-09-24T09:44:18.045Z,63.16
2022-09-24T09:46:55.457Z,59.57
2022-09-24T09:49:29.100Z,56.30
2022-09-24T09:52:03.685Z,55.62
2022-09-24T09:54:39.860Z,53.39
2022-09-24T09:57:15.619Z,54.06
2022-09-24T09:59:49.485Z,52.66
2022-09-24T10:02:27.079Z,48.00
2022-09-24T10:04:59.625Z,49.37
2022-09-24T10:07:31.711Z,48.68
2022-09-24T10:10:18.614Z,44.59
2022-09-24T10:12:48.507Z,47.11
2022-09-24T10:15:21.937Z,44.97
2022-09-24T10:17:55.595Z,47.05
2022-09-24T10:20:29.453Z,46.93
2022-09-24T10:23:03.930Z,47.79
2022-09-24T10:25:36.335Z,47.73
2022-09-24T10:28:28.027Z,48.09
2022-09-24T10:31:02.794Z,49.32
2022-09-24T10:33:38.527Z,49.89
2022-09-24T10:36:14.301Z,50.34
2022-09-24T10:38:43.785Z,51.43
2022-09-24T10:41:26.188Z,50.12
2022-09-24T10:43:57.234Z,51.11
2022-09-24T10:46:52.126Z,51.41
2022-09-24T10:49:39.181Z,51.31
2022-09-24T10:52:31.996Z,51.06
2022-09-24T10:55:19.322Z,50.41
2022-09-24T10:58:04.183Z,50.81
2022-09-24T11:00:41.634Z,51.01
2022-09-24T11:04:05.612Z,49.11
2022-09-24T11:06:51.206Z,48.50
2022-09-24T11:09:32.177Z,46.35
2022-09-24T11:12:11.474Z,46.86
2022-09-24T11:14:56.052Z,46.33
2022-09-24T11:17:34.634Z,44.67
2022-09-24T11:20:21.855Z,43.06
2022-09-24T11:23:18.983Z,42.35
2022-09-24T11:25:56.251Z,42.94
2022-09-24T11:28:48.620Z,42.31
2022-09-24T11:31:27.828Z,41.10
2022-09-24T11:34:15.215Z,37.86
2022-09-24T11:37:03.338Z,38.61
2022-09-24T11:39:52.563Z,37.84
2022-09-24T11:42:31.368Z,37.52
2022-09-24T11:45:41.266Z,36.01
2022-09-24T11:48:45.948Z,36.35
2022-09-24T11:51:29.455Z,37.60
2022-09-24T11:54:09.257Z,38.09
2022-09-24T11:56:43.525Z,37.77
2022-09-24T11:59:23.784Z,35.99
2022-09-24T12:02:03.793Z,35.40
2022-09-24T12:04:50.452Z,37.27
2022-09-24T12:07:29.703Z,37.91
2022-09-24T12:10:06.142Z,38.47
2022-09-24T12:12:40.775Z,38.76
2022-09-24T12:15:19.912Z,39.73
2022-09-24T12:17:57.906Z,40.69
2022-09-24T12:20:30.343Z,41.10
2022-09-24T12:23:05.449Z,41.27
2022-09-24T12:25:45.200Z,41.54
2022-09-24T12:28:36.834Z,41.62
2022-09-24T12:31:32.759Z,40.62
2022-09-24T12:34:09.898Z,39.37
2022-09-24T12:36:57.547Z,37.82
2022-09-24T12:39:31.771Z,36.93
2022-09-24T12:42:06.154Z,35.07
2022-09-24T12:44:46.443Z,34.62
2022-09-24T12:47:24.091Z,34.15
2022-09-24T12:49:57.781Z,34.14
2022-09-24T12:52:33.052Z,32.87
2022-09-24T12:55:05.522Z,34.10
2022-09-24T12:57:41.524Z,33.23
2022-09-24T13:00:37.820Z,33.80
2022-09-24T13:03:08.677Z,35.15
2022-09-24T13:05:49.926Z,34.62
2022-09-24T13:08:27.955Z,36.02
2022-09-24T13:11:00.825Z,37.06
2022-09-24T13:13:35.329Z,37.85
2022-09-24T13:16:07.891Z,38.48
2022-09-24T13:18:37.957Z,38.69
2022-09-24T13:21:10.303Z,38.56
2022-09-24T13:23:48.664Z,37.29
2022-09-24T13:26:35.062Z,38.39
2022-09-24T13:29:07.170Z,38.37
2022-09-24T13:31:49.064Z,40.30
2022-09-24T13:34:23.284Z,41.21
2022-09-24T13:37:00.851Z,40.62
2022-09-24T13:39:38.195Z,39.74
2022-09-24T13:42:18.971Z,38.66
2022-09-24T13:44:53.950Z,38.08
2022-09-24T13:47:30.792Z,37.10
2022-09-24T13:50:10.134Z,37.72
2022-09-24T13:52:45.171Z,37.08
2022-09-24T13:55:22.974Z,38.32
2022-09-24T13:57:52.393Z,37.87
2022-09-24T14:00:27.704Z,36.56
2022-09-24T14:03:02.912Z,35.38
2022-09-24T14:05:37.209Z,33.22
2022-09-24T14:08:09.822Z,32.90
2022-09-24T14:10:40.157Z,33.10
2022-09-24T14:13:21.511Z,31.56
2022-09-24T14:15:57.724Z,31.40
2022-09-24T14:18:28.815Z,31.47
2022-09-24T14:21:04.204Z,29.61
2022-09-24T14:23:40.353Z,29.48
2022-09-24T14:26:17.219Z,29.50
2022-09-24T14:28:46.745Z,29.81
2022-09-24T14:31:17.505Z,30.02
2022-09-24T14:33:47.127Z,30.80
2022-09-24T14:36:17.220Z,31.54
2022-09-24T14:38:59.165Z,31.07
2022-09-24T14:41:33.192Z,32.59
2022-09-24T14:44:07.907Z,33.50
2022-09-24T14:46:48.820Z,35.03
2022-09-24T14:49:23.567Z,36.24
2022-09-24T14:51:55.011Z,36.32
2022-09-24T14:54:33.075Z,36.34
2022-09-24T14:57:24.772Z,35.76
2022-09-24T14:59:54.354Z,35.42
2022-09-24T15:02:32.027Z,34.21
2022-09-24T15:05:06.482Z,34.02
2022-09-24T15:07:36.818Z,33.55
2022-09-24T15:10:07.791Z,32.86
2022-09-24T15:12:39.134Z,32.95
2022-09-24T15:15:30.611Z,31.88
2022-09-24T15:18:01.277Z,32.88
2022-09-24T15:20:30.383Z,33.15
2022-09-24T15:22:59.460Z,33.32
2022-09-24T15:25:29.071Z,33.39
2022-09-24T15:27:59.435Z,33.75
2022-09-24T15:30:28.633Z,33.13
2022-09-24T15:32:58.063Z,34.48
2022-09-24T15:35:28.721Z,35.03
2022-09-24T15:37:59.956Z,36.24
2022-09-24T15:40:31.237Z,37.16
2022-09-24T15:43:00.558Z,37.99
2022-09-24T15:45:29.650Z,38.83
2022-09-24T15:47:58.898Z,39.56
2022-09-24T15:50:29.594Z,40.33
2022-09-24T15:53:02.000Z,40.84
2022-09-24T15:55:31.443Z,41.38
2022-09-24T15:58:02.041Z,41.92
2022-09-24T16:00:31.175Z,42.21
2022-09-24T16:03:00.719Z,42.80
2022-09-24T16:05:31.289Z,43.50
2022-09-24T16:08:00.399Z,43.80
2022-09-24T16:10:29.629Z,44.52
2022-09-24T16:12:58.788Z,44.52
2022-09-24T16:15:28.132Z,44.89
2022-09-24T16:17:57.205Z,45.34
2022-09-24T16:20:26.363Z,45.59
2022-09-24T16:22:57.003Z,45.58
2022-09-24T16:25:27.493Z,45.92
2022-09-24T16:27:57.589Z,46.22
2022-09-24T16:30:26.917Z,46.49
2022-09-24T16:32:56.007Z,46.60
2022-09-24T16:35:25.197Z,46.78
2022-09-24T16:37:54.286Z,46.88
2022-09-24T16:40:24.861Z,46.94
2022-09-24T16:42:54.126Z,46.88
2022-09-24T16:45:23.212Z,46.66
2022-09-24T16:47:52.381Z,46.54
2022-09-24T16:50:23.764Z,46.70
2022-09-24T16:52:54.961Z,47.16
2022-09-24T16:55:25.543Z,47.43
2022-09-24T16:57:54.998Z,47.78
2022-09-24T17:00:24.133Z,47.95
2022-09-24T17:02:53.734Z,48.04
2022-09-24T17:05:22.949Z,48.30
2022-09-24T17:07:52.045Z,48.16
2022-09-24T17:10:23.712Z,48.43
2022-09-24T17:12:54.302Z,48.53
2022-09-24T17:15:23.422Z,48.96
2022-09-24T17:17:52.509Z,49.47
2022-09-24T17:20:22.978Z,49.67
2022-09-24T17:22:52.146Z,49.67
2022-09-24T17:25:21.285Z,49.66
2022-09-24T17:27:50.494Z,49.70
2022-09-24T17:30:21.988Z,49.62
2022-09-24T17:32:52.340Z,49.30
2022-09-24T17:35:21.492Z,49.64
2022-09-24T17:37:50.984Z,49.79
2022-09-24T17:40:23.830Z,49.78
2022-09-24T17:42:53.678Z,50.06
2022-09-24T17:45:24.287Z,50.29
2022-09-24T17:48:00.706Z,50.42
2022-09-24T17:50:30.212Z,50.50
2022-09-24T17:53:00.045Z,50.76
2022-09-24T17:55:29.358Z,50.88
2022-09-24T17:57:58.502Z,50.96
2022-09-24T18:00:29.242Z,51.14
2022-09-24T18:02:58.547Z,51.32
2022-09-24T18:05:27.816Z,51.10
2022-09-24T18:07:57.033Z,51.13
2022-09-24T18:10:26.308Z,51.14
2022-09-24T18:12:55.775Z,51.16
2022-09-24T18:15:25.475Z,51.28
2022-09-24T18:17:56.815Z,51.35
2022-09-24T18:20:27.167Z,51.36
2022-09-24T18:22:56.334Z,51.08
2022-09-24T18:25:27.282Z,51.01
2022-09-24T18:28:00.966Z,51.13
2022-09-24T18:30:30.534Z,51.42
2022-09-24T18:33:02.749Z,51.39
2022-09-24T18:35:31.857Z,51.52
2022-09-24T18:38:01.173Z,51.40
2022-09-24T18:40:30.675Z,51.48
2022-09-24T18:43:00.124Z,51.44
2022-09-24T18:45:29.570Z,51.52
2022-09-24T18:48:00.066Z,51.62
2022-09-24T18:50:29.553Z,51.57
2022-09-24T18:53:00.090Z,51.98
2022-09-24T18:55:30.483Z,52.30
2022-09-24T18:57:59.727Z,52.40
2022-09-24T19:00:46.551Z,52.74
2022-09-24T19:03:17.854Z,52.73
2022-09-24T19:05:47.999Z,53.01
2022-09-24T19:08:17.465Z,52.87
2022-09-24T19:10:46.847Z,52.79
2022-09-24T19:13:17.072Z,52.65
2022-09-24T19:15:46.978Z,52.64
2022-09-24T19:18:18.524Z,51.92
2022-09-24T19:20:49.751Z,51.87
2022-09-24T19:23:19.016Z,51.94
2022-09-24T19:25:48.178Z,52.03
2022-09-24T19:28:17.572Z,52.07
2022-09-24T19:30:49.447Z,52.02
2022-09-24T19:33:20.558Z,52.03
2022-09-24T19:35:56.319Z,52.15
2022-09-24T19:38:28.635Z,52.21
2022-09-24T19:41:02.925Z,51.99
2022-09-24T19:43:33.338Z,52.17
2022-09-24T19:46:04.542Z,52.36
2022-09-24T19:48:39.831Z,52.66
2022-09-24T19:51:13.610Z,52.89
2022-09-24T19:53:43.950Z,53.23
2022-09-24T19:56:13.334Z,53.19
2022-09-24T19:58:42.536Z,53.45
2022-09-24T20:01:16.314Z,53.56
2022-09-24T20:03:48.669Z,53.77
2022-09-24T20:06:21.033Z,53.60
2022-09-24T20:08:50.713Z,53.90
2022-09-24T20:11:22.045Z,53.95
2022-09-24T20:13:53.142Z,54.13
2022-09-24T20:16:26.476Z,54.28
2022-09-24T20:18:58.533Z,54.29
2022-09-24T20:21:30.129Z,54.47
2022-09-24T20:24:01.348Z,54.59
2022-09-24T20:26:48.106Z,54.76
2022-09-24T20:29:19.691Z,55.05
2022-09-24T20:31:52.931Z,54.96
2022-09-24T20:34:33.611Z,55.23
2022-09-24T20:37:04.521Z,55.37
2022-09-24T20:39:34.291Z,55.23
2022-09-24T20:42:04.032Z,55.22
2022-09-24T20:44:34.134Z,55.10
2022-09-24T20:47:03.483Z,55.52
2022-09-24T20:49:34.883Z,55.66
2022-09-24T20:52:06.138Z,55.73
2022-09-24T20:54:35.518Z,55.91
2022-09-24T20:57:05.033Z,55.90
2022-09-24T20:59:34.429Z,56.38
2022-09-24T21:02:03.886Z,56.56
2022-09-24T21:04:35.949Z,56.58
2022-09-24T21:07:05.877Z,56.73
2022-09-24T21:09:35.025Z,56.94
2022-09-24T21:12:04.533Z,57.17
2022-09-24T21:14:35.865Z,57.05
2022-09-24T21:17:05.163Z,57.35
2022-09-24T21:19:36.521Z,57.59
2022-09-24T21:22:06.161Z,57.95
2022-09-24T21:24:35.337Z,57.94
2022-09-24T21:27:05.360Z,58.11
2022-09-24T21:29:34.554Z,58.09
2022-09-24T21:32:04.022Z,58.36
2022-09-24T21:34:35.770Z,58.39
2022-09-24T21:37:04.944Z,58.59
2022-09-24T21:39:34.150Z,58.42
2022-09-24T21:42:03.236Z,58.58
2022-09-24T21:44:34.330Z,58.71
2022-09-24T21:47:03.504Z,58.50
2022-09-24T21:49:36.781Z,58.99
2022-09-24T21:52:07.083Z,59.04
2022-09-24T21:54:36.627Z,59.03
2022-09-24T21:57:05.828Z,59.39
2022-09-24T21:59:52.224Z,59.76
2022-09-24T22:02:21.591Z,60.02
2022-09-24T22:04:52.261Z,60.06
2022-09-24T22:07:21.418Z,60.11
2022-09-24T22:09:50.702Z,59.98
2022-09-24T22:12:19.878Z,60.51
2022-09-24T22:14:49.008Z,60.47
2022-09-24T22:17:20.595Z,60.95
2022-09-24T22:19:51.224Z,61.50
2022-09-24T22:22:21.780Z,61.20
2022-09-24T22:24:50.890Z,62.10
2022-09-24T22:27:20.006Z,61.98
2022-09-24T22:29:49.119Z,61.69
2022-09-24T22:32:18.258Z,61.84
2022-09-24T22:35:04.672Z,62.11
2022-09-24T22:37:35.283Z,62.34
2022-09-24T22:40:04.468Z,62.48
2022-09-24T22:42:33.544Z,62.97
2022-09-24T22:45:02.671Z,62.60
2022-09-24T22:47:31.855Z,63.09
2022-09-24T22:50:01.046Z,63.06
2022-09-24T22:52:30.256Z,63.29
2022-09-24T22:55:00.797Z,63.64
2022-09-24T22:57:29.955Z,63.61
2022-09-24T23:00:01.414Z,63.62
2022-09-24T23:02:31.340Z,63.56
2022-09-24T23:05:00.614Z,63.49
2022-09-24T23:07:29.897Z,63.67
2022-09-24T23:10:00.473Z,63.48
2022-09-24T23:12:33.051Z,63.46
2022-09-24T23:15:02.532Z,63.57
2022-09-24T23:17:32.849Z,63.07
2022-09-24T23:20:03.083Z,63.07
2022-09-24T23:22:32.262Z,63.20
2022-09-24T23:25:02.979Z,63.12
2022-09-24T23:27:32.603Z,63.56
2022-09-24T23:30:01.933Z,63.26
2022-09-24T23:32:32.248Z,63.62
2022-09-24T23:35:02.005Z,63.63
2022-09-24T23:37:31.308Z,63.59
2022-09-24T23:40:02.205Z,64.03
2022-09-24T23:42:31.429Z,63.98
2022-09-24T23:45:00.560Z,64.23
2022-09-24T23:47:33.873Z,64.45
2022-09-24T23:50:05.857Z,64.93
2022-09-24T23:52:35.018Z,65.75
2022-09-24T23:55:06.043Z,65.57
2022-09-24T23:57:35.038Z,65.86
